createdAt,value
2019-06-01T00:01:17.452Z,569
2019-06-01T00:06:29.006Z,570
2019-06-01T00:11:41.218Z,572
2019-06-01T00:17:00.327Z,574
2019-06-01T00:22:11.909Z,579
2019-06-01T00:27:22.690Z,582
2019-06-01T00:32:34.214Z,585
2019-06-01T00:37:45.796Z,589
2019-06-01T00:42:58.387Z,591
2019-06-01T00:48:09.936Z,594
2019-06-01T00:53:21.510Z,608
2019-06-01T00:58:33.124Z,613
2019-06-01T01:09:05.742Z,633
2019-06-01T01:19:34.861Z,636
2019-06-01T01:24:46.493Z,630
2019-06-01T01:29:59.056Z,633
2019-06-01T01:35:10.728Z,641
2019-06-01T01:40:23.253Z,640
2019-06-01T01:45:34.842Z,647
2019-06-01T01:50:46.384Z,657
2019-06-01T01:55:59.041Z,667
2019-06-01T02:01:23.088Z,674
2019-06-01T02:06:34.887Z,683
2019-06-01T02:11:46.458Z,694
2019-06-01T02:17:02.478Z,693
2019-06-01T02:22:14.177Z,698
2019-06-01T02:29:01.462Z,695
2019-06-01T02:34:15.504Z,722
2019-06-01T02:39:27.101Z,713
2019-06-01T02:44:38.619Z,765
2019-06-01T02:49:50.197Z,779
2019-06-01T02:55:13.305Z,693
2019-06-01T03:00:24.881Z,659
2019-06-01T03:05:36.451Z,651
2019-06-01T03:10:47.206Z,719
2019-06-01T03:15:58.743Z,715
2019-06-01T03:21:11.963Z,710
2019-06-01T03:26:23.250Z,707
2019-06-01T03:31:34.842Z,691
2019-06-01T03:36:46.117Z,662
2019-06-01T03:41:57.131Z,622
2019-06-01T03:47:09.708Z,627
2019-06-01T03:52:23.409Z,613
2019-06-01T03:57:38.202Z,600
2019-06-01T04:02:49.722Z,590
2019-06-01T04:08:01.387Z,586
2019-06-01T04:13:14.056Z,584
2019-06-01T04:18:25.312Z,571
2019-06-01T04:23:36.862Z,559
2019-06-01T04:28:48.159Z,563
2019-06-01T04:33:58.924Z,547
2019-06-01T04:39:11.645Z,540
2019-06-01T04:44:24.545Z,678
2019-06-01T04:49:45.038Z,625
2019-06-01T04:54:56.590Z,653
2019-06-01T05:00:11.866Z,665
2019-06-01T05:05:47.367Z,673
2019-06-01T05:11:16.301Z,672
2019-06-01T05:16:27.555Z,676
2019-06-01T05:27:03.519Z,679
2019-06-01T05:32:16.516Z,684
2019-06-01T05:37:29.491Z,681
2019-06-01T05:42:41.055Z,693
2019-06-01T05:47:52.829Z,710
2019-06-01T05:58:25.617Z,753
2019-06-01T06:03:40.695Z,758
2019-06-01T06:08:52.009Z,781
2019-06-01T06:14:03.575Z,795
2019-06-01T06:26:09.446Z,758
2019-06-01T06:31:21.183Z,674
2019-06-01T06:36:33.900Z,592
2019-06-01T06:41:48.445Z,565
2019-06-01T06:47:01.219Z,535
2019-06-01T06:52:12.675Z,503
2019-06-01T06:57:24.331Z,498
2019-06-01T07:02:36.684Z,514
2019-06-01T07:07:48.748Z,517
2019-06-01T07:12:59.752Z,531
2019-06-01T07:18:11.015Z,569
2019-06-01T07:23:23.715Z,583
2019-06-01T07:28:36.100Z,610
2019-06-01T07:33:47.389Z,603
2019-06-01T07:38:58.668Z,583
2019-06-01T07:44:09.394Z,637
2019-06-01T07:49:21.012Z,688
2019-06-01T07:54:33.536Z,650
2019-06-01T07:59:44.858Z,633
2019-06-01T08:04:56.105Z,637
2019-06-01T08:10:07.149Z,611
2019-06-01T08:15:18.433Z,601
2019-06-01T08:20:30.365Z,608
2019-06-01T08:25:46.562Z,615
2019-06-01T08:30:59.880Z,630
2019-06-01T08:36:11.174Z,521
2019-06-01T08:41:23.363Z,459
2019-06-01T08:46:36.171Z,433
2019-06-01T08:51:48.482Z,428
2019-06-01T08:57:00.800Z,467
2019-06-01T09:02:12.094Z,485
2019-06-01T09:07:24.797Z,512
2019-06-01T09:12:37.168Z,528
2019-06-01T09:17:48.760Z,482
2019-06-01T09:22:59.751Z,448
2019-06-01T09:28:11.037Z,425
2019-06-01T09:33:22.629Z,426
2019-06-01T09:38:33.789Z,413
2019-06-01T09:43:46.663Z,417
2019-06-01T09:48:57.649Z,500
2019-06-01T09:54:09.217Z,504
2019-06-01T09:59:20.226Z,499
2019-06-01T10:04:32.261Z,515
2019-06-01T10:09:47.976Z,537
2019-06-01T10:14:59.240Z,545
2019-06-01T10:20:10.528Z,540
2019-06-01T10:25:21.241Z,554
2019-06-01T10:30:33.802Z,549
2019-06-01T10:35:46.856Z,539
2019-06-01T10:40:58.418Z,478
2019-06-01T10:46:09.985Z,499
2019-06-01T10:51:21.543Z,509
2019-06-01T10:56:34.340Z,465
2019-06-01T11:01:46.628Z,494
2019-06-01T11:06:58.292Z,538
2019-06-01T11:12:09.846Z,544
2019-06-01T11:17:21.197Z,504
2019-06-01T11:22:33.430Z,519
2019-06-01T11:27:46.017Z,476
2019-06-01T11:32:57.031Z,535
2019-06-01T11:38:08.598Z,527
2019-06-01T11:43:20.168Z,523
2019-06-01T11:48:31.723Z,531
2019-06-01T11:53:43.424Z,569
2019-06-01T11:58:56.753Z,598
2019-06-01T12:04:07.771Z,648
2019-06-01T12:09:18.788Z,692
2019-06-01T12:14:30.344Z,688
2019-06-01T12:19:42.665Z,700
2019-06-01T12:24:55.356Z,716
2019-06-01T12:30:06.913Z,689
2019-06-01T12:35:18.214Z,626
2019-06-01T12:40:29.857Z,603
2019-06-01T12:45:44.372Z,585
2019-06-01T12:50:58.194Z,591
2019-06-01T12:56:15.261Z,542
2019-06-01T13:01:30.475Z,548
2019-06-01T13:06:42.718Z,599
2019-06-01T13:17:18.542Z,505
2019-06-01T13:22:30.089Z,498
2019-06-01T13:27:42.518Z,495
2019-06-01T13:32:57.231Z,497
2019-06-01T13:38:12.029Z,480
2019-06-01T13:43:23.764Z,479
2019-06-01T13:48:34.497Z,453
2019-06-01T13:53:46.298Z,473
2019-06-01T13:58:59.048Z,498
2019-06-01T14:04:10.608Z,503
2019-06-01T14:09:22.107Z,507
2019-06-01T14:14:33.523Z,526
2019-06-01T14:19:45.606Z,471
2019-06-01T14:25:10.049Z,428
2019-06-01T14:30:35.665Z,420
2019-06-01T14:35:48.357Z,410
2019-06-01T14:41:00.984Z,400
2019-06-01T14:46:12.544Z,400
2019-06-01T14:51:24.189Z,400
2019-06-01T14:56:35.709Z,399
2019-06-01T15:01:48.138Z,400
2019-06-01T15:07:00.381Z,400
2019-06-01T15:12:11.953Z,399
2019-06-01T15:17:23.519Z,402
2019-06-01T15:22:35.091Z,404
2019-06-01T15:27:46.376Z,413
2019-06-01T15:38:21.964Z,410
2019-06-01T15:43:33.635Z,405
2019-06-01T15:48:44.881Z,409
2019-06-01T15:53:56.928Z,413
2019-06-01T15:59:09.608Z,405
2019-06-01T16:04:21.182Z,404
2019-06-01T16:09:42.445Z,415
2019-06-01T16:14:55.387Z,430
2019-06-01T16:20:06.730Z,446
2019-06-01T16:25:18.305Z,461
2019-06-01T16:30:29.889Z,483
2019-06-01T16:35:41.152Z,503
2019-06-01T16:40:52.719Z,520
2019-06-01T16:46:04.271Z,540
2019-06-01T16:51:16.548Z,558
2019-06-01T16:56:27.836Z,577
2019-06-01T17:01:39.393Z,588
2019-06-01T17:06:50.966Z,593
2019-06-01T17:12:03.123Z,605
2019-06-01T17:17:13.954Z,619
2019-06-01T17:22:29.233Z,630
2019-06-01T17:27:40.798Z,643
2019-06-01T17:32:52.126Z,656
2019-06-01T17:38:04.906Z,672
2019-06-01T17:43:17.779Z,682
2019-06-01T17:48:29.358Z,692
2019-06-01T17:53:40.372Z,704
2019-06-01T17:58:52.969Z,713
2019-06-01T18:04:10.032Z,724
2019-06-01T18:09:22.521Z,735
2019-06-01T18:14:33.826Z,749
2019-06-01T18:19:44.834Z,767
2019-06-01T18:24:56.753Z,585
2019-06-01T18:30:08.719Z,570
2019-06-01T18:35:21.556Z,634
2019-06-01T18:40:32.837Z,677
2019-06-01T18:45:44.413Z,705
2019-06-01T18:50:55.430Z,719
2019-06-01T18:56:06.423Z,734
2019-06-01T19:01:20.925Z,742
2019-06-01T19:06:31.977Z,752
2019-06-01T19:11:43.294Z,762
2019-06-01T19:16:54.866Z,773
2019-06-01T19:22:06.402Z,786
2019-06-01T19:27:18.735Z,799
2019-06-01T19:32:29.767Z,815
2019-06-01T19:37:41.093Z,826
2019-06-01T19:42:52.386Z,835
2019-06-01T19:48:06.213Z,839
2019-06-01T19:53:20.341Z,841
2019-06-01T19:58:31.903Z,843
2019-06-01T20:03:43.456Z,843
2019-06-01T20:08:54.792Z,846
2019-06-01T20:14:06.332Z,843
2019-06-01T20:19:17.924Z,841
2019-06-01T20:24:30.535Z,844
2019-06-01T20:29:41.833Z,847
2019-06-01T20:34:55.969Z,845
2019-06-01T20:40:07.257Z,843
2019-06-01T20:50:46.959Z,823
2019-06-01T20:55:58.497Z,820
2019-06-01T21:01:15.670Z,815
2019-06-01T21:06:33.110Z,835
2019-06-01T21:17:11.473Z,816
2019-06-01T21:22:26.903Z,834
2019-06-01T21:27:38.469Z,880
2019-06-01T21:32:49.475Z,908
2019-06-01T21:38:00.219Z,954
2019-06-01T21:43:23.365Z,979
2019-06-01T21:48:46.003Z,996
2019-06-01T21:54:00.469Z,1008
2019-06-01T21:59:12.044Z,1024
2019-06-01T22:04:25.323Z,1043
2019-06-01T22:09:38.291Z,1051
2019-06-01T22:14:49.591Z,1055
2019-06-01T22:20:00.610Z,1062
2019-06-01T22:25:12.197Z,1075
2019-06-01T22:30:24.780Z,1089
2019-06-01T22:35:36.756Z,1092
2019-06-01T22:40:47.765Z,1103
2019-06-01T22:45:59.046Z,1109
2019-06-01T22:51:10.343Z,1112
2019-06-01T22:56:21.632Z,1123
2019-06-01T23:01:34.317Z,823
2019-06-01T23:06:45.880Z,871
2019-06-01T23:11:57.151Z,951
2019-06-01T23:17:08.722Z,938
2019-06-01T23:22:21.638Z,940
2019-06-01T23:27:32.733Z,927
2019-06-01T23:32:43.991Z,916
2019-06-01T23:37:55.555Z,904
2019-06-01T23:43:07.375Z,924
2019-06-01T23:48:19.027Z,936
2019-06-01T23:53:31.318Z,936
2019-06-01T23:58:44.627Z,953
